Pagina principale
METAR-TAF:

METAR-TAF

Aeroporti :

Bad Vöslau, Austria

latitudine: 47-57-52N, longitudine: 016-15-34E, altezza: 233 m

Osservazione

Il bollettino è stato emesso 59 minuti fa, alle 12:00 UTC
Vento 6 kt da est
Temperature 9°C
Umidità 71%
Pressione

METAR: LOAV 261200Z 08006KT 20KM FEW060SC 09/04

Ora: 14:59 (12:59 UTC)

Previsione

Il bollettino è stato emesso 1 ora e 34 minuti fa, alle 11:25 UTC
Previsione valida dal 26 alle 12 UTC al 26 alle 21 UTC
Vento 4 kt da direzioni variabili
Visibilità 10 km o più
nessuna nube inferiore a 1500 m e nessun cumulonembo

TAF: LOAV 261125Z 2612/2621 VRB04KT CAVOK

Osservazioni e previsioni meteorologiche di più di 4000 aeroporti (messaggi METAR e TAF).

Le stazioni disponibili sono rappresentate dai dischi gialli e rossi sulla carta.

Puntare il mouse per vedere il nome della stazione.

Clicca sopra per visualizzare le osservazioni e previsioni meteorologiche.

Per cambiare la mappa : fare clic sui pulsanti verdi con una croce nera per ingrandire, il pulsante verde con un trattino per diminuire, o sulla freccia verde per le mappe adiacenti.


METAR-TAF: